Time;durP1;ratioP1;P1;durP2;ratioP2;P2;SDS_P1;SDS_P2;PMS_P1;PMS_P2;Temp;Humidity;BMP_temperature;BMP_pressure;BME280_temperature;BME280_humidity;BME280_pressure;Samples;Min_cycle;Max_cycle;Signal;HPM_P1;HPM_P2
2022/04/20 00:00:34;;;;;;;9.00;4.63;;;;;;;6.88;70.35;101625.34;4946993;29;20039;-65
2022/04/20 00:03:00;;;;;;;6.80;4.07;;;;;;;6.50;71.04;101629.28;4947479;29;20062;-66
2022/04/20 00:05:26;;;;;;;6.60;3.88;;;;;;;6.66;70.50;101624.34;4946550;29;20066;-65
2022/04/20 00:07:51;;;;;;;4.93;3.47;;;;;;;6.49;71.40;101623.13;4946458;29;20122;-65
2022/04/20 00:10:17;;;;;;;4.90;3.28;;;;;;;6.43;71.41;101622.50;4945944;29;20043;-65
2022/04/20 00:12:42;;;;;;;6.65;3.97;;;;;;;6.33;71.35;101621.06;4945492;29;20121;-65
2022/04/20 00:15:08;;;;;;;7.80;4.53;;;;;;;6.46;71.63;101622.38;4945934;28;20050;-65
2022/04/20 00:17:34;;;;;;;7.43;4.45;;;;;;;6.62;71.13;101620.06;4928063;29;20621;-65
2022/04/20 00:20:00;;;;;;;6.68;4.13;;;;;;;6.80;70.81;101622.06;4946150;29;20535;-65
2022/04/20 00:22:25;;;;;;;9.15;4.15;;;;;;;6.56;71.11;101621.13;4928230;29;20504;-65
2022/04/20 00:24:51;;;;;;;5.47;3.83;;;;;;;6.34;71.57;101622.78;4946065;29;20055;-66
2022/04/20 00:27:16;;;;;;;8.43;4.15;;;;;;;6.51;71.10;101628.38;4945699;29;20039;-65
2022/04/20 00:29:42;;;;;;;5.95;4.22;;;;;;;6.68;71.37;101630.47;4946394;29;20054;-63
2022/04/20 00:32:08;;;;;;;10.82;4.07;;;;;;;6.72;71.00;101629.41;4946791;29;20038;-65
2022/04/20 00:34:33;;;;;;;6.75;4.45;;;;;;;6.91;69.94;101629.66;4930033;29;20074;-65
2022/04/20 00:36:59;;;;;;;5.95;3.75;;;;;;;6.75;70.51;101632.84;4947035;29;20053;-65
2022/04/20 00:39:24;;;;;;;7.47;4.22;;;;;;;6.65;70.81;101630.56;4941744;28;20077;-65
2022/04/20 00:41:51;;;;;;;7.95;4.25;;;;;;;6.45;71.40;101631.22;4947381;28;20113;-65
2022/04/20 00:44:17;;;;;;;5.93;3.83;;;;;;;6.34;71.68;101638.69;4946977;28;20117;-65
2022/04/20 00:46:45;;;;;;;6.30;3.45;;;;;;;6.27;71.39;101634.47;4964636;28;20499;-65
2022/04/20 00:49:13;;;;;;;6.25;4.10;;;;;;;6.20;71.70;101639.97;4964649;28;20137;-65
2022/04/20 00:51:53;;;;;;;7.95;4.63;;;;;;;6.20;71.86;101634.69;4946448;28;20043;-65
2022/04/20 00:54:19;;;;;;;7.65;4.38;;;;;;;6.21;72.32;101636.41;4947460;28;20050;-65
2022/04/20 00:56:44;;;;;;;10.05;5.25;;;;;;;6.24;72.87;101638.13;4946540;28;20039;-65
2022/04/20 00:59:12;;;;;;;11.95;4.32;;;;;;;6.12;73.07;101642.00;4946347;28;20782;-65
2022/04/20 01:01:38;;;;;;;8.73;4.32;;;;;;;6.14;72.93;101634.03;4946109;28;20045;-65
2022/04/20 01:04:03;;;;;;;7.45;4.55;;;;;;;6.15;72.92;101635.75;4946211;28;20574;-65
2022/04/20 01:06:50;;;;;;;6.18;3.92;;;;;;;6.18;72.88;101640.97;4946235;28;20042;-65
2022/04/20 01:09:28;;;;;;;9.50;4.68;;;;;;;5.93;73.44;101644.38;4963961;28;20042;-65
2022/04/20 01:12:15;;;;;;;6.53;4.43;;;;;;;5.71;74.63;101632.69;4963192;28;20582;-65
2022/04/20 01:15:19;;;;;;;10.10;4.95;;;;;;;5.71;74.31;101643.25;4952077;28;20451;-65
2022/04/20 01:17:51;;;;;;;6.65;4.30;;;;;;;5.44;76.12;101642.31;4946691;28;20057;-65
2022/04/20 01:20:35;;;;;;;8.93;5.35;;;;;;;5.68;74.87;101641.59;4963815;28;20201;-65
2022/04/20 01:23:19;;;;;;;10.30;5.47;;;;;;;5.64;74.62;101639.94;4964419;28;21089;-66
2022/04/20 01:26:07;;;;;;;7.18;4.78;;;;;;;5.52;75.03;101648.22;4950483;28;20057;-65
2022/04/20 01:28:58;;;;;;;6.97;4.80;;;;;;;5.55;75.25;101649.94;4953673;28;20051;-65
2022/04/20 01:31:39;;;;;;;7.07;4.45;;;;;;;5.64;74.64;101644.38;4946524;28;20062;-65
2022/04/20 01:34:33;;;;;;;10.07;4.18;;;;;;;5.77;74.00;101644.84;4934219;28;20105;-65
2022/04/20 01:36:58;;;;;;;7.63;5.25;;;;;;;5.77;74.55;101636.91;4964175;28;20039;-65
2022/04/20 01:39:24;;;;;;;7.50;4.10;;;;;;;5.69;75.00;101639.81;4946821;28;20109;-64
2022/04/20 01:41:50;;;;;;;7.22;4.25;;;;;;;5.71;74.21;101643.25;4946124;28;20130;-65
2022/04/20 01:44:15;;;;;;;9.25;4.97;;;;;;;5.75;74.26;101636.09;4945919;28;20837;-65
2022/04/20 01:46:46;;;;;;;10.15;4.88;;;;;;;5.70;74.17;101636.25;4963828;28;20068;-65
2022/04/20 01:49:28;;;;;;;7.80;4.72;;;;;;;5.70;73.99;101636.25;4964079;28;20657;-65
2022/04/20 01:52:04;;;;;;;9.35;5.32;;;;;;;5.76;74.05;101641.34;4946289;28;20841;-65
2022/04/20 01:54:48;;;;;;;8.63;4.90;;;;;;;5.69;74.28;101643.31;4960838;28;20054;-65
2022/04/20 01:57:30;;;;;;;6.38;4.13;;;;;;;5.76;73.06;101641.34;4944843;29;20043;-64
2022/04/20 01:59:55;;;;;;;9.98;4.97;;;;;;;5.87;72.97;101639.25;4945561;28;20797;-65
2022/04/20 02:02:40;;;;;;;10.13;4.80;;;;;;;5.86;72.65;101648.09;4946375;29;20535;-65
2022/04/20 02:05:28;;;;;;;7.18;4.03;;;;;;;5.94;71.97;101646.13;4886973;29;20116;-65
2022/04/20 02:08:13;;;;;;;7.65;4.78;;;;;;;5.86;72.87;101645.44;4884549;29;20109;-65
2022/04/20 02:11:01;;;;;;;10.48;4.70;;;;;;;5.79;73.58;101646.56;4883594;29;20076;-65
2022/04/20 02:13:26;;;;;;;6.93;4.00;;;;;;;5.72;73.32;101648.53;4867876;29;20045;-65
2022/04/20 02:15:55;;;;;;;6.78;4.18;;;;;;;5.75;73.74;101647.56;4868138;29;20264;-65
2022/04/20 02:18:35;;;;;;;7.13;3.78;;;;;;;5.35;73.79;101654.03;4854275;29;20048;-65
2022/04/20 02:21:27;;;;;;;8.43;4.15;;;;;;;5.59;73.54;101638.34;4882382;29;20051;-66
2022/04/20 02:23:53;;;;;;;6.45;4.50;;;;;;;5.86;72.48;101650.72;4883437;29;20060;-65
2022/04/20 02:26:19;;;;;;;7.07;4.18;;;;;;;5.91;72.06;101645.31;4852977;29;20040;-65
2022/04/20 02:28:45;;;;;;;7.10;4.20;;;;;;;5.44;73.66;101653.75;4867712;29;20120;-65
2022/04/20 02:31:10;;;;;;;4.65;3.53;;;;;;;5.60;72.67;101638.31;4884004;29;20048;-65
2022/04/20 02:33:36;;;;;;;7.90;4.28;;;;;;;5.37;73.80;101646.03;4884043;29;20065;-65
2022/04/20 02:36:02;;;;;;;11.48;4.63;;;;;;;5.35;74.30;101645.22;4868133;29;20167;-65
2022/04/20 02:38:29;;;;;;;7.25;4.10;;;;;;;5.20;73.92;101649.16;4883589;29;20053;-65
2022/04/20 02:40:55;;;;;;;10.10;4.72;;;;;;;5.34;73.57;101646.13;4883986;29;20072;-65
2022/04/20 02:43:20;;;;;;;9.32;5.03;;;;;;;5.60;71.57;101642.72;4933441;29;20821;-65
2022/04/20 02:45:46;;;;;;;6.80;4.38;;;;;;;5.63;71.89;101640.00;4927419;29;20051;-65
2022/04/20 02:48:11;;;;;;;6.38;4.22;;;;;;;5.20;73.64;101647.38;4910269;29;20047;-65
2022/04/20 02:50:37;;;;;;;9.18;4.30;;;;;;;5.43;73.21;101654.69;4926000;29;20067;-65
2022/04/20 02:53:03;;;;;;;7.22;4.10;;;;;;;5.58;72.30;101647.22;4926115;29;20487;-65
2022/04/20 02:55:31;;;;;;;7.00;4.10;;;;;;;5.41;73.15;101652.97;4925646;29;20039;-66
2022/04/20 02:57:57;;;;;;;10.63;4.28;;;;;;;5.37;73.44;101652.22;4943410;29;20885;-65
2022/04/20 03:00:23;;;;;;;7.32;4.10;;;;;;;5.11;73.90;101655.56;4925661;29;20042;-65
2022/04/20 03:02:56;;;;;;;7.82;4.68;;;;;;;4.98;75.17;101658.63;4941251;28;20145;-64
2022/04/20 03:05:21;;;;;;;7.45;4.18;;;;;;;5.03;74.60;101657.56;4925705;29;20047;-65
2022/04/20 03:07:47;;;;;;;6.95;4.43;;;;;;;5.14;73.41;101662.56;4925054;29;20039;-66
2022/04/20 03:10:13;;;;;;;7.65;4.65;;;;;;;5.20;73.45;101662.38;4924707;29;20043;-64
2022/04/20 03:12:42;;;;;;;7.00;4.40;;;;;;;5.07;73.53;101667.16;4924914;29;20804;-66
2022/04/20 03:15:08;;;;;;;7.75;4.40;;;;;;;4.95;73.93;101659.56;4942788;29;20039;-65
2022/04/20 03:17:34;;;;;;;7.40;4.22;;;;;;;4.87;73.98;101666.81;4926144;29;20043;-65
2022/04/20 03:20:00;;;;;;;8.50;4.18;;;;;;;4.86;74.36;101675.66;4927617;29;20070;-64
2022/04/20 03:22:25;;;;;;;11.40;4.38;;;;;;;5.05;73.57;101670.75;4927048;29;20068;-65
2022/04/20 03:24:51;;;;;;;4.95;3.63;;;;;;;5.19;72.46;101674.75;4942020;29;20039;-65
2022/04/20 03:27:39;;;;;;;7.15;3.92;;;;;;;5.31;72.41;101670.88;4938231;28;20880;-65
2022/04/20 03:30:06;;;;;;;6.35;3.58;;;;;;;5.39;71.41;101662.75;4926882;29;20036;-64
2022/04/20 03:32:31;;;;;;;7.05;3.80;;;;;;;5.32;71.85;101667.34;4925912;29;20071;-65
2022/04/20 03:34:57;;;;;;;6.75;4.50;;;;;;;5.41;71.26;101672.34;4943340;29;20460;-65
2022/04/20 03:37:22;;;;;;;7.45;4.30;;;;;;;5.37;70.95;101670.72;4925620;29;20031;-65
2022/04/20 03:39:48;;;;;;;11.10;4.00;;;;;;;5.39;70.58;101681.25;4925709;29;20547;-65
2022/04/20 03:42:14;;;;;;;6.20;3.70;;;;;;;5.39;71.03;101674.19;4937608;28;20047;-65
2022/04/20 03:44:40;;;;;;;4.35;3.38;;;;;;;5.40;70.91;101685.63;4962722;28;20054;-65
2022/04/20 03:47:06;;;;;;;6.32;4.28;;;;;;;5.39;70.31;101679.47;4962930;28;20385;-65
2022/04/20 03:49:31;;;;;;;6.15;3.58;;;;;;;5.42;70.35;101681.16;4928907;28;20063;-65
2022/04/20 03:51:57;;;;;;;7.68;4.13;;;;;;;5.24;70.79;101685.19;4944791;28;20042;-64
2022/04/20 03:54:28;;;;;;;6.00;3.33;;;;;;;5.33;70.49;101682.31;4924014;28;20080;-65
2022/04/20 03:57:10;;;;;;;4.88;3.53;;;;;;;5.38;70.84;101682.19;4944359;28;20035;-64
2022/04/20 03:59:43;;;;;;;5.97;3.75;;;;;;;5.40;70.28;101685.63;4944658;28;20042;-64
2022/04/20 04:02:10;;;;;;;8.20;4.60;;;;;;;5.23;71.01;101680.81;4928510;28;20043;-64
2022/04/20 04:04:42;;;;;;;5.88;3.53;;;;;;;4.94;71.39;101684.25;4944537;28;20043;-65
2022/04/20 04:07:17;;;;;;;4.75;3.58;;;;;;;5.01;71.39;101687.59;4944424;28;20470;-65
2022/04/20 04:09:42;;;;;;;5.90;3.33;;;;;;;5.01;71.33;101687.59;4962145;28;20051;-65
2022/04/20 04:12:09;;;;;;;6.05;3.35;;;;;;;5.03;71.48;101684.00;4928470;28;20038;-65
2022/04/20 04:14:44;;;;;;;5.88;3.30;;;;;;;5.07;70.94;101693.59;4944586;28;20085;-65
2022/04/20 04:17:10;;;;;;;5.70;3.47;;;;;;;5.09;71.37;101690.91;4944240;28;20133;-65
2022/04/20 04:19:36;;;;;;;9.90;3.88;;;;;;;5.06;71.10;101690.97;4944624;28;20039;-65
2022/04/20 04:22:02;;;;;;;5.93;3.80;;;;;;;5.03;70.89;101691.94;4945370;28;20034;-64
2022/04/20 04:24:36;;;;;;;5.97;3.35;;;;;;;5.16;70.40;101698.59;4947938;28;20870;-65
2022/04/20 04:27:07;;;;;;;5.65;3.72;;;;;;;5.14;69.82;101697.78;4947402;28;20041;-65
2022/04/20 04:29:36;;;;;;;6.47;3.72;;;;;;;5.18;70.46;101699.47;4931929;28;20158;-65
2022/04/20 04:32:03;;;;;;;5.57;3.83;;;;;;;5.25;70.69;101701.94;4947027;28;20582;-65
2022/04/20 04:34:29;;;;;;;4.57;2.88;;;;;;;5.26;69.95;101704.50;4947228;28;20041;-65
2022/04/20 04:36:55;;;;;;;8.77;4.53;;;;;;;5.23;70.58;101704.63;4945380;28;20034;-65
2022/04/20 04:39:28;;;;;;;9.15;4.15;;;;;;;5.27;70.30;101710.66;4946135;28;20039;-64
2022/04/20 04:41:56;;;;;;;5.60;3.55;;;;;;;5.60;69.30;101714.16;4946153;28;20050;-65
2022/04/20 04:44:22;;;;;;;7.70;3.35;;;;;;;5.88;68.40;101712.44;4946118;28;20090;-65
2022/04/20 04:49:43;;;;;;;5.95;3.42;;;;;;;6.53;65.38;101698.09;4961901;28;20226;-65
2022/04/20 04:52:11;;;;;;;6.18;3.55;;;;;;;6.54;65.02;101698.97;4966130;28;20038;-64
2022/04/20 04:54:40;;;;;;;10.55;3.33;;;;;;;6.59;65.30;101702.31;4948720;28;20038;-65
2022/04/20 04:57:08;;;;;;;9.25;3.50;;;;;;;6.84;64.56;101692.63;4948684;28;20038;-64
2022/04/20 04:59:38;;;;;;;4.47;2.95;;;;;;;7.01;64.50;101700.00;4948553;28;20631;-65
2022/04/20 05:02:04;;;;;;;4.40;2.92;;;;;;;7.20;63.21;101697.56;4945854;28;20078;-65
2022/04/20 05:04:30;;;;;;;3.88;3.10;;;;;;;7.14;63.48;101703.09;4945554;28;20049;-65
2022/04/20 05:07:01;;;;;;;4.22;3.25;;;;;;;7.26;63.70;101697.34;4943181;28;20049;-65
2022/04/20 05:09:38;;;;;;;5.10;3.15;;;;;;;7.37;63.50;101705.78;4936113;29;20047;-65
2022/04/20 05:12:07;;;;;;;5.10;3.15;;;;;;;7.52;63.02;101705.22;4928329;29;20035;-64
2022/04/20 05:14:36;;;;;;;5.15;3.08;;;;;;;7.77;61.35;101702.50;4937510;28;20041;-65
2022/04/20 05:17:01;;;;;;;9.25;3.78;;;;;;;7.55;63.68;101704.25;4945915;28;20031;-65
2022/04/20 05:19:29;;;;;;;5.20;2.65;;;;;;;8.01;61.49;101707.81;4942187;28;20066;-64
2022/04/20 05:21:57;;;;;;;12.60;3.10;;;;;;;8.35;60.37;101704.69;4947703;28;20499;-65
2022/04/20 05:24:30;;;;;;;3.28;2.45;;;;;;;8.57;59.37;101702.91;4947229;28;20054;-65
2022/04/20 05:26:56;;;;;;;5.22;2.97;;;;;;;8.30;60.77;101715.50;4942372;28;20035;-65
2022/04/20 05:29:23;;;;;;;5.47;2.80;;;;;;;8.14;60.20;101708.22;4943533;28;20069;-64
2022/04/20 05:31:59;;;;;;;4.13;2.60;;;;;;;7.82;61.63;101712.94;4944389;28;20045;-65
2022/04/20 05:34:30;;;;;;;3.08;2.72;;;;;;;7.92;62.09;101711.69;4945825;28;20495;-65
2022/04/20 05:42:25;;;;;;;4.35;3.10;;;;;;;8.01;61.85;101711.31;4966110;28;20049;-64
2022/04/20 05:44:52;;;;;;;5.15;3.05;;;;;;;8.65;60.07;101712.38;4948717;28;20072;-65
2022/04/20 05:47:18;;;;;;;4.53;3.45;;;;;;;8.86;59.15;101718.59;4946238;28;20160;-65
2022/04/20 05:49:44;;;;;;;7.78;2.60;;;;;;;9.01;58.34;101718.81;4931912;29;20595;-64
2022/04/20 05:52:11;;;;;;;4.57;2.83;;;;;;;9.28;57.14;101711.41;4929345;29;20489;-65
2022/04/20 05:54:36;;;;;;;3.15;2.58;;;;;;;9.46;56.97;101715.06;4927411;29;20039;-65
2022/04/20 05:57:02;;;;;;;2.90;2.58;;;;;;;9.61;55.47;101710.84;4930711;29;20049;-65
2022/04/20 05:59:28;;;;;;;4.45;2.35;;;;;;;9.99;55.18;101701.09;4906086;29;20071;-64
2022/04/20 06:01:55;;;;;;;3.90;2.58;;;;;;;10.05;53.90;101707.94;4909146;29;20047;-65
2022/04/20 06:04:23;;;;;;;3.08;2.65;;;;;;;10.04;54.59;101703.50;4924431;29;20123;-65
2022/04/20 06:07:09;;;;;;;2.97;2.40;;;;;;;10.59;54.62;101682.22;4937211;29;20051;-65
2022/04/20 06:09:49;;;;;;;2.95;2.50;;;;;;;10.44;54.13;101691.88;4929768;29;20500;-65
2022/04/20 06:12:32;;;;;;;3.92;2.90;;;;;;;10.76;53.19;101690.25;4910228;29;20097;-65
2022/04/20 06:15:06;;;;;;;4.47;2.63;;;;;;;10.49;53.37;101689.84;4931392;28;20130;-65
2022/04/20 06:17:39;;;;;;;4.60;2.55;;;;;;;10.78;54.56;101692.81;4927771;29;20048;-65
2022/04/20 06:20:07;;;;;;;2.70;2.40;;;;;;;10.44;53.53;101693.63;4913056;29;20053;-65
2022/04/20 06:22:47;;;;;;;3.83;2.45;;;;;;;10.60;52.65;101684.81;4924071;29;20516;-65
2022/04/20 06:25:22;;;;;;;3.30;2.47;;;;;;;10.92;53.54;101682.31;4923368;29;20094;-65
2022/04/20 06:28:13;;;;;;;2.65;2.17;;;;;;;11.36;51.92;101695.16;4924695;29;20114;-64
2022/04/20 06:30:45;;;;;;;2.38;2.17;;;;;;;11.20;52.31;101695.13;4924865;29;20051;-64
2022/04/20 06:33:33;;;;;;;3.35;2.72;;;;;;;11.36;54.07;101695.16;4917993;29;20066;-65
2022/04/20 06:36:01;;;;;;;2.45;2.00;;;;;;;11.65;52.56;101694.47;4941715;29;20055;-65
2022/04/20 06:38:46;;;;;;;3.40;2.15;;;;;;;11.82;51.34;101695.38;4920532;29;20043;-65
2022/04/20 06:41:24;;;;;;;3.60;2.40;;;;;;;12.01;49.80;101690.75;4924388;29;20058;-65
2022/04/20 06:44:10;;;;;;;5.13;2.22;;;;;;;11.56;52.27;101689.63;4934500;28;20055;-65
2022/04/20 06:46:38;;;;;;;2.10;1.90;;;;;;;11.98;50.88;101692.72;4920056;29;20062;-65
2022/04/20 06:49:25;;;;;;;2.88;2.53;;;;;;;11.49;51.95;101692.69;4960809;28;20142;-65
2022/04/20 07:00:16;;;;;;;3.55;2.47;;;;;;;11.75;51.18;101691.31;4937153;28;20125;-64
2022/04/20 07:03:03;;;;;;;3.45;2.38;;;;;;;11.99;51.17;101697.13;4963939;28;20128;-65
2022/04/20 07:05:54;;;;;;;2.40;2.10;;;;;;;12.15;50.82;101695.34;4937905;28;20061;-65
2022/04/20 07:08:33;;;;;;;3.05;2.45;;;;;;;11.99;48.96;101703.31;4962748;28;20527;-65
2022/04/20 07:11:05;;;;;;;;;;;;;;;11.90;49.56;101703.84;4940745;29;20043;-65
2022/04/20 07:13:31;;;;;;;4.32;2.33;;;;;;;11.84;49.91;101702.34;4925911;28;19933;-65
2022/04/20 07:15:56;;;;;;;4.60;2.42;;;;;;;12.43;49.37;101694.59;4945427;28;20034;-65
2022/04/20 07:18:23;;;;;;;4.63;2.15;;;;;;;12.64;50.27;101700.53;4946006;28;20047;-64
2022/04/20 07:21:09;;;;;;;3.38;2.75;;;;;;;12.91;48.11;101696.25;4960382;28;20178;-63
2022/04/20 07:23:44;;;;;;;4.00;2.30;;;;;;;12.60;48.41;101694.50;4945892;28;20035;-64
2022/04/20 07:26:28;;;;;;;3.28;2.15;;;;;;;12.64;48.69;101704.06;4966824;28;20121;-64
2022/04/20 07:29:12;;;;;;;3.22;2.25;;;;;;;13.20;48.36;101705.22;4968125;28;20074;-65
2022/04/20 07:32:01;;;;;;;3.47;2.45;;;;;;;13.12;48.41;101706.63;4948542;28;20868;-65
2022/04/20 07:34:49;;;;;;;4.25;2.50;;;;;;;12.96;49.99;101712.91;4921980;29;20265;-64
2022/04/20 07:37:37;;;;;;;2.83;2.20;;;;;;;12.48;47.74;101716.59;4929151;29;20042;-65
2022/04/20 07:40:22;;;;;;;3.63;2.65;;;;;;;13.12;48.09;101710.16;4946817;29;20051;-65
2022/04/20 07:42:54;;;;;;;3.08;2.50;;;;;;;13.03;48.51;101715.19;4946751;29;20488;-65
2022/04/20 07:45:46;;;;;;;4.78;2.25;;;;;;;13.11;47.51;101718.28;4913654;29;20063;-65
2022/04/20 07:48:20;;;;;;;4.50;2.63;;;;;;;13.85;47.67;101715.50;4947430;29;20111;-65
2022/04/20 07:50:55;;;;;;;4.03;2.72;;;;;;;13.37;46.44;101719.41;4929375;29;20047;-65
2022/04/20 07:53:56;;;;;;;4.55;2.63;;;;;;;13.60;48.41;101716.16;4893547;29;20063;-64
2022/04/20 07:56:36;;;;;;;5.63;2.60;;;;;;;13.46;48.01;101719.72;4889924;29;20165;-64
2022/04/20 07:59:34;;;;;;;2.97;2.53;;;;;;;13.51;47.26;101716.75;4833733;29;20095;-65
2022/04/20 08:02:23;;;;;;;4.53;2.42;;;;;;;13.52;48.41;101715.81;4834099;29;20145;-64
2022/04/20 08:05:08;;;;;;;2.80;2.40;;;;;;;13.36;49.29;101720.38;4834328;29;20088;-63
2022/04/20 08:07:34;;;;;;;3.33;2.40;;;;;;;13.06;49.42;101713.22;4848570;29;20071;-62
2022/04/20 08:10:04;;;;;;;3.53;2.78;;;;;;;12.99;49.72;101710.97;4832786;29;20100;-63
2022/04/20 08:12:37;;;;;;;7.47;2.45;;;;;;;12.94;49.26;101727.31;4847958;29;20156;-63
2022/04/20 08:15:04;;;;;;;2.40;2.20;;;;;;;12.74;48.40;101723.13;4848155;29;20419;-63
2022/04/20 08:17:37;;;;;;;4.88;2.70;;;;;;;13.60;49.49;101721.53;4847460;29;20093;-64
2022/04/20 08:20:22;;;;;;;3.05;2.30;;;;;;;13.50;48.53;101727.56;4831554;29;20048;-65
2022/04/20 08:22:52;;;;;;;2.88;2.00;;;;;;;13.51;50.01;101726.63;4833374;29;20708;-63
2022/04/20 08:25:18;;;;;;;3.17;2.30;;;;;;;13.76;47.39;101732.19;4835123;29;20050;-64
2022/04/20 08:27:43;;;;;;;3.72;2.00;;;;;;;13.85;48.76;101728.91;4849988;29;20061;-65
2022/04/20 08:30:09;;;;;;;6.40;2.67;;;;;;;13.58;48.53;101734.16;4873138;29;20068;-63
2022/04/20 08:32:35;;;;;;;5.47;2.40;;;;;;;13.65;46.63;101724.78;4872689;29;20044;-65
2022/04/20 08:35:00;;;;;;;2.60;2.05;;;;;;;13.83;46.02;101735.34;4912610;28;20519;-65
2022/04/20 08:37:26;;;;;;;5.45;2.58;;;;;;;13.90;47.24;101734.84;4969298;28;20042;-65
2022/04/20 08:39:52;;;;;;;2.15;1.95;;;;;;;13.07;46.35;101739.03;4970121;28;20046;-65
2022/04/20 08:42:20;;;;;;;2.88;2.50;;;;;;;13.43;49.12;101738.66;4936256;28;20042;-66
2022/04/20 08:44:50;;;;;;;3.25;2.40;;;;;;;13.86;46.54;101737.84;4972933;28;20030;-66
2022/04/20 08:47:20;;;;;;;3.22;2.20;;;;;;;14.03;47.29;101736.75;4970583;28;20049;-65
2022/04/20 08:49:48;;;;;;;3.30;2.33;;;;;;;13.27;46.36;101734.31;4986699;28;20157;-65
2022/04/20 08:55:00;;;;;;;3.47;2.30;;;;;;;14.24;45.95;101724.66;4968747;28;20065;-65
2022/04/20 08:57:25;;;;;;;5.68;2.47;;;;;;;13.84;46.53;101727.19;4968153;28;20043;-65
2022/04/20 08:59:51;;;;;;;7.03;2.30;;;;;;;13.84;46.27;101732.53;4968271;28;20022;-65
2022/04/20 09:02:18;;;;;;;3.70;2.50;;;;;;;14.20;48.17;101728.47;4967659;28;20126;-65
2022/04/20 09:04:44;;;;;;;2.88;2.40;;;;;;;14.10;48.94;101722.84;4966471;28;20038;-65
2022/04/20 09:07:14;;;;;;;3.30;3.00;;;;;;;14.36;45.02;101721.19;4967482;28;20046;-65
2022/04/20 09:09:40;;;;;;;2.90;2.22;;;;;;;14.02;48.09;101737.72;4967702;28;20070;-66
2022/04/20 09:12:14;;;;;;;4.57;3.10;;;;;;;14.02;45.34;101732.34;4967424;28;20106;-70
2022/04/20 09:14:41;;;;;;;4.75;2.78;;;;;;;14.11;45.22;101735.31;4968242;28;20051;-66
2022/04/20 09:17:10;;;;;;;7.63;2.75;;;;;;;14.22;45.38;101734.63;4968128;28;20542;-68
2022/04/20 09:19:36;;;;;;;3.80;2.63;;;;;;;13.81;44.70;101737.25;4968274;28;20042;-65
2022/04/20 09:22:16;;;;;;;3.45;2.10;;;;;;;13.55;43.86;101712.91;4967923;28;20078;-65
2022/04/20 09:25:17;;;;;;;4.43;2.63;;;;;;;13.70;46.73;101716.47;4968628;28;20078;-66
2022/04/20 09:27:43;;;;;;;6.30;2.85;;;;;;;13.95;46.10;101716.63;4939535;29;20054;-65
2022/04/20 09:30:16;;;;;;;5.63;2.22;;;;;;;13.98;44.22;101711.09;4948294;29;20035;-65
2022/04/20 09:32:45;;;;;;;4.00;2.40;;;;;;;14.41;47.65;101702.97;4950270;29;20057;-72
2022/04/20 09:35:14;;;;;;;3.67;2.47;;;;;;;14.66;45.11;101699.53;4947563;29;20863;-65
2022/04/20 09:37:41;;;;;;;3.20;2.50;;;;;;;14.44;43.86;101700.06;4948359;29;20043;-65
2022/04/20 09:40:36;;;;;;;2.50;2.13;;;;;;;14.88;44.27;101690.91;4968276;28;20105;-66
2022/04/20 09:43:12;;;;;;;3.53;2.35;;;;;;;15.11;45.52;101694.72;4949302;28;20077;-66
2022/04/20 09:45:38;;;;;;;2.50;2.10;;;;;;;14.87;47.01;101701.75;4948636;28;20845;-65
2022/04/20 09:51:20;;;;;;;2.58;2.38;;;;;;;14.93;43.68;101685.22;4966219;28;20042;-64
2022/04/20 09:53:49;;;;;;;6.65;2.20;;;;;;;14.90;43.18;101688.09;4966166;28;20047;-65
2022/04/20 09:56:19;;;;;;;3.38;2.13;;;;;;;15.07;44.26;101681.59;4964250;28;20062;-65
2022/04/20 09:58:46;;;;;;;3.95;2.20;;;;;;;14.87;43.16;101685.63;4966002;28;20512;-65
2022/04/20 10:01:45;;;;;;;2.78;2.20;;;;;;;14.39;44.28;101688.75;4965922;28;20142;-64
2022/04/20 10:04:10;;;;;;;3.72;2.60;;;;;;;14.84;44.53;101677.78;4942475;28;20062;-65
2022/04/20 10:06:40;;;;;;;5.20;2.25;;;;;;;14.96;43.03;101674.25;4965580;28;20054;-65
2022/04/20 10:09:05;;;;;;;2.35;2.13;;;;;;;15.10;44.39;101679.53;4966121;28;20039;-66
2022/04/20 10:11:31;;;;;;;2.30;2.10;;;;;;;15.34;41.97;101676.13;4964972;28;20462;-65
2022/04/20 10:16:50;;;;;;;;;;;;;;;15.24;44.17;101671.38;4943545;28;20057;-66
2022/04/20 10:19:24;;;;;;;3.92;2.65;;;;;;;15.55;39.07;101670.06;4966054;28;19922;-68
2022/04/20 10:21:53;;;;;;;3.05;2.67;;;;;;;15.78;41.94;101663.09;4964883;28;20073;-66
2022/04/20 10:24:24;;;;;;;2.53;2.28;;;;;;;15.35;44.72;101656.31;4949450;28;20439;-66
2022/04/20 10:26:50;;;;;;;2.72;2.15;;;;;;;15.59;41.55;101654.59;4949822;28;20222;-65
2022/04/20 10:29:42;;;;;;;2.70;2.10;;;;;;;15.06;41.55;101656.56;4965660;28;20042;-66
2022/04/20 10:32:25;;;;;;;6.13;2.55;;;;;;;14.99;42.58;101653.41;4966445;28;20055;-65
2022/04/20 10:35:03;;;;;;;3.53;2.45;;;;;;;14.92;43.70;101651.28;4969335;28;20057;-65
2022/04/20 10:37:40;;;;;;;3.53;2.83;;;;;;;15.23;44.04;101648.16;4967331;28;20035;-66
2022/04/20 10:40:17;;;;;;;4.57;3.10;;;;;;;15.40;43.79;101646.13;4937163;28;20574;-65
2022/04/20 10:46:34;;;;;;;3.40;2.47;;;;;;;15.17;42.72;101640.53;4967458;28;20053;-65
2022/04/20 10:49:07;;;;;;;2.35;2.10;;;;;;;15.26;43.84;101641.69;4961278;28;20055;-66
2022/04/20 10:51:45;;;;;;;4.53;2.78;;;;;;;15.72;47.76;101628.59;4963566;28;20039;-65
2022/04/20 10:54:23;;;;;;;2.80;2.50;;;;;;;15.19;45.58;101627.00;4963587;28;20039;-65
2022/04/20 10:56:59;;;;;;;4.00;2.95;;;;;;;15.50;42.94;101626.53;4942955;28;20582;-65
2022/04/20 10:59:24;;;;;;;3.23;2.63;;;;;;;15.29;44.13;101622.69;4967108;28;20038;-65
2022/04/20 11:01:59;;;;;;;3.08;2.40;;;;;;;15.26;41.88;101626.47;4963387;28;20098;-65
2022/04/20 11:04:46;;;;;;;3.67;2.72;;;;;;;15.28;42.01;101616.47;4963792;28;20057;-65
2022/04/20 11:07:15;;;;;;;4.15;2.92;;;;;;;15.55;43.24;101610.06;4963396;28;20061;-65
2022/04/20 11:09:48;;;;;;;2.92;2.63;;;;;;;15.27;41.71;101608.50;4946228;28;20079;-66
2022/04/20 11:18:38;;;;;;;5.57;2.80;;;;;;;15.45;40.53;101614.38;4949576;28;20057;-65
2022/04/20 11:18:42;;;;;;;4.57;2.40;;;;;;;16.09;41.37;101598.97;4945552;28;20035;-66
2022/04/20 11:21:32;;;;;;;3.83;2.63;;;;;;;15.89;43.70;101596.91;4946052;28;20295;-65
2022/04/20 11:24:11;;;;;;;5.70;3.00;;;;;;;16.10;42.95;101589.06;4955988;28;20047;-66
2022/04/20 11:26:51;;;;;;;4.53;2.67;;;;;;;15.42;41.36;101596.66;4958412;28;20042;-66
2022/04/20 11:29:25;;;;;;;3.05;2.67;;;;;;;15.36;41.23;101598.91;4963781;28;20039;-65
2022/04/20 11:31:59;;;;;;;3.13;2.13;;;;;;;15.33;41.50;101597.31;4947341;28;20153;-66
2022/04/20 11:35:08;;;;;;;3.88;2.70;;;;;;;15.58;42.40;101596.41;4956212;28;20096;-65
2022/04/20 11:37:34;;;;;;;3.40;2.78;;;;;;;15.76;43.64;101594.22;4969269;28;20054;-65
2022/04/20 11:40:02;;;;;;;4.97;3.03;;;;;;;15.84;43.33;101594.53;4968353;28;20148;-65
2022/04/20 11:42:28;;;;;;;2.25;2.03;;;;;;;15.64;41.17;101582.56;4968314;28;20050;-66
2022/04/20 11:44:53;;;;;;;4.05;2.42;;;;;;;15.54;41.62;101590.41;4966840;28;20034;-66
2022/04/20 11:47:25;;;;;;;6.35;2.83;;;;;;;15.73;43.00;101587.28;4949612;28;20042;-66
2022/04/20 11:49:50;;;;;;;5.13;2.78;;;;;;;16.10;43.12;101581.00;4949526;28;20050;-66
2022/04/20 11:52:20;;;;;;;4.40;2.47;;;;;;;16.02;44.25;101581.56;4959683;28;20094;-66
2022/04/20 11:54:49;;;;;;;2.90;2.35;;;;;;;15.61;41.90;101584.56;4927490;29;20614;-66
2022/04/20 11:57:27;;;;;;;3.55;2.83;;;;;;;15.87;42.25;101571.97;4935594;28;20053;-66
2022/04/20 11:59:52;;;;;;;3.05;2.70;;;;;;;16.05;43.24;101576.81;4966497;28;20447;-66
2022/04/20 12:02:19;;;;;;;3.58;2.65;;;;;;;16.04;42.98;101582.31;4965997;28;20043;-66
2022/04/20 12:05:02;;;;;;;2.53;2.20;;;;;;;16.33;43.06;101581.97;4948235;28;20447;-66
2022/04/20 12:07:32;;;;;;;3.47;2.22;;;;;;;15.77;42.85;101590.59;4966668;28;20046;-67
2022/04/20 12:09:58;;;;;;;2.58;2.38;;;;;;;15.88;42.20;101579.06;4965623;28;20039;-66
2022/04/20 12:12:24;;;;;;;4.00;2.17;;;;;;;16.01;42.08;101561.00;4938622;29;20130;-66
2022/04/20 12:14:49;;;;;;;3.60;2.75;;;;;;;16.08;42.38;101566.81;4947145;28;20043;-66
2022/04/20 12:17:20;;;;;;;2.63;2.40;;;;;;;15.79;42.55;101567.97;4965639;28;20594;-66
2022/04/20 12:19:48;;;;;;;5.75;2.78;;;;;;;16.13;42.18;101564.63;4925188;29;20047;-66
2022/04/20 12:22:17;;;;;;;2.65;2.20;;;;;;;15.85;42.67;101563.97;4953791;28;20042;-66
2022/04/20 12:24:43;;;;;;;2.78;2.47;;;;;;;16.42;44.06;101559.75;4947636;28;20038;-66